Time;durP1;ratioP1;P1;durP2;ratioP2;P2;SDS_P1;SDS_P2;PMS_P1;PMS_P2;Temp;Humidity;BMP_temperature;BMP_pressure;BME280_temperature;BME280_humidity;BME280_pressure;Samples;Min_cycle;Max_cycle;Signal;HPM_P1;HPM_P2
2022/01/22 00:02:07;;;;;;;5.68;1.40;;;6.80;95.20;;;;;;9187786;19;20018;-72
2022/01/22 00:05:17;;;;;;;6.25;0.90;;;6.90;95.20;;;;;;9183880;19;20015;-72
2022/01/22 00:08:22;;;;;;;5.53;0.95;;;6.90;95.20;;;;;;9186414;19;20029;-73
2022/01/22 00:11:35;;;;;;;7.03;1.63;;;6.90;95.20;;;;;;9188507;19;20472;-72
2022/01/22 00:14:40;;;;;;;10.50;1.50;;;6.90;95.30;;;;;;9188806;19;20479;-72
2022/01/22 00:17:47;;;;;;;7.07;1.52;;;6.90;95.30;;;;;;9190187;19;20010;-72
2022/01/22 00:20:55;;;;;;;9.35;1.95;;;6.90;95.30;;;;;;9186446;19;20780;-72
2022/01/22 00:24:02;;;;;;;6.50;1.15;;;6.90;95.30;;;;;;9187040;19;20015;-72
2022/01/22 00:27:07;;;;;;;7.40;1.20;;;6.90;95.30;;;;;;9185321;19;20019;-71
2022/01/22 00:30:15;;;;;;;6.25;1.30;;;6.90;95.30;;;;;;9184648;19;20018;-73
2022/01/22 00:33:20;;;;;;;8.82;1.60;;;6.90;95.30;;;;;;9188761;19;20352;-71
2022/01/22 00:36:28;;;;;;;6.70;1.20;;;6.90;95.30;;;;;;9188112;19;20385;-72
2022/01/22 00:39:34;;;;;;;5.57;1.77;;;6.90;95.30;;;;;;9186990;19;20014;-72
2022/01/22 00:42:39;;;;;;;6.28;1.08;;;6.90;95.30;;;;;;9184958;19;20111;-71
2022/01/22 00:45:44;;;;;;;8.80;1.27;;;6.90;95.30;;;;;;9183746;19;20360;-71
2022/01/22 00:48:50;;;;;;;9.07;1.30;;;6.90;95.30;;;;;;9184828;19;20392;-71
2022/01/22 00:51:57;;;;;;;4.28;1.20;;;6.90;95.30;;;;;;9187007;19;20011;-71
2022/01/22 00:55:02;;;;;;;5.93;1.17;;;6.90;95.30;;;;;;9186551;19;20023;-71
2022/01/22 00:58:07;;;;;;;3.92;1.25;;;6.90;95.30;;;;;;9188433;19;20369;-71
2022/01/22 01:01:12;;;;;;;5.20;1.05;;;7.00;95.30;;;;;;9186673;19;20040;-73
2022/01/22 01:04:18;;;;;;;4.93;0.90;;;7.00;95.30;;;;;;9182961;19;20018;-72
2022/01/22 01:07:25;;;;;;;7.47;1.38;;;7.00;95.30;;;;;;9183364;19;20002;-71
2022/01/22 01:10:30;;;;;;;8.07;1.45;;;7.00;95.30;;;;;;9184002;19;20021;-71
2022/01/22 01:13:42;;;;;;;8.20;1.52;;;7.00;95.30;;;;;;9184145;19;20344;-72
2022/01/22 01:17:07;;;;;;;8.75;1.08;;;7.00;95.30;;;;;;9185886;19;20086;-71
2022/01/22 01:33:39;;;;;;;6.78;1.10;;;7.00;95.30;;;;;;9183669;19;20015;-72
2022/01/22 01:36:47;;;;;;;5.93;1.52;;;7.00;95.30;;;;;;9182561;19;20029;-72
2022/01/22 01:40:00;;;;;;;7.65;2.30;;;7.10;95.40;;;;;;9182907;19;20018;-72
2022/01/22 01:43:13;;;;;;;7.05;1.10;;;7.10;95.40;;;;;;9182264;19;20647;-72
2022/01/22 01:46:20;;;;;;;8.80;1.40;;;7.10;95.40;;;;;;9183587;19;20420;-72
2022/01/22 01:49:27;;;;;;;5.53;1.35;;;7.10;95.40;;;;;;9183682;19;20014;-72
2022/01/22 01:52:38;;;;;;;8.75;1.67;;;7.10;95.40;;;;;;9184693;19;20026;-72
2022/01/22 01:56:04;;;;;;;6.90;1.00;;;7.10;95.40;;;;;;9185379;19;20341;-72
2022/01/22 01:59:14;;;;;;;7.45;1.92;;;7.10;95.40;;;;;;9184473;19;20374;-71
2022/01/22 02:02:21;;;;;;;5.70;1.40;;;7.10;95.40;;;;;;9182451;19;20505;-72
2022/01/22 02:05:26;;;;;;;5.50;1.55;;;7.10;95.40;;;;;;9178092;19;20020;-72
2022/01/22 02:08:35;;;;;;;7.55;1.10;;;7.10;95.40;;;;;;9181626;19;20022;-71
2022/01/22 02:11:57;;;;;;;6.05;1.50;;;7.10;95.40;;;;;;9179286;19;20015;-72
2022/01/22 02:25:36;;;;;;;5.80;1.45;;;7.10;95.40;;;;;;9184822;19;20010;-72
2022/01/22 02:28:42;;;;;;;6.35;1.13;;;7.10;95.40;;;;;;9182719;19;20011;-71
2022/01/22 02:31:59;;;;;;;3.97;1.20;;;7.10;95.40;;;;;;9179258;19;20090;-71
2022/01/22 02:35:12;;;;;;;5.78;0.90;;;7.10;95.40;;;;;;9179857;19;20014;-71
2022/01/22 02:38:26;;;;;;;5.65;1.10;;;7.20;95.70;;;;;;9182177;19;20117;-71
2022/01/22 02:41:35;;;;;;;8.23;1.10;;;7.20;95.40;;;;;;9182356;19;20475;-72
2022/01/22 02:44:45;;;;;;;8.13;1.30;;;7.10;95.40;;;;;;9183663;19;20086;-72
2022/01/22 02:47:51;;;;;;;5.65;1.00;;;7.20;95.40;;;;;;9182811;19;20007;-73
2022/01/22 02:50:56;;;;;;;5.80;1.15;;;7.20;95.40;;;;;;9180784;19;20430;-73
2022/01/22 02:54:05;;;;;;;7.18;1.50;;;7.20;95.40;;;;;;9179489;19;20015;-73
2022/01/22 02:57:12;;;;;;;4.80;1.08;;;7.20;95.40;;;;;;9178955;19;20377;-73
2022/01/22 03:00:22;;;;;;;4.22;1.00;;;7.20;95.40;;;;;;9181766;19;20018;-72
2022/01/22 03:03:28;;;;;;;6.80;1.75;;;7.20;95.40;;;;;;9182664;19;20014;-72
2022/01/22 03:06:33;;;;;;;2.92;0.73;;;7.20;95.40;;;;;;9180516;19;20019;-73
2022/01/22 03:09:44;;;;;;;6.97;1.00;;;7.20;95.40;;;;;;9179474;19;20050;-73
2022/01/22 03:13:35;;;;;;;6.57;1.20;;;7.20;95.40;;;;;;9180135;19;20007;-73
2022/01/22 03:16:55;;;;;;;4.75;1.17;;;7.30;95.40;;;;;;9178593;19;20044;-73
2022/01/22 03:20:08;;;;;;;4.65;1.25;;;7.20;95.40;;;;;;9179435;19;20028;-71
2022/01/22 03:27:19;;;;;;;4.63;1.42;;;7.20;95.40;;;;;;9178758;19;20015;-71
2022/01/22 03:30:00;;;;;;;5.25;1.13;;;7.20;95.40;;;;;;9179837;19;20010;-71
2022/01/22 03:33:05;;;;;;;6.28;1.15;;;7.20;95.40;;;;;;9181140;19;21410;-71
2022/01/22 03:36:11;;;;;;;5.43;1.38;;;7.20;95.40;;;;;;9180717;19;20014;-71
2022/01/22 03:39:17;;;;;;;8.25;1.13;;;7.30;95.50;;;;;;9180687;19;20025;-71
2022/01/22 03:42:25;;;;;;;6.38;1.10;;;7.30;95.50;;;;;;9179069;19;20007;-72
2022/01/22 03:45:30;;;;;;;9.10;1.27;;;7.30;95.50;;;;;;9179979;19;20358;-71
2022/01/22 03:48:37;;;;;;;5.75;1.20;;;7.30;95.50;;;;;;9176346;19;20472;-71
2022/01/22 03:51:46;;;;;;;4.80;1.08;;;7.30;95.50;;;;;;9177107;19;20487;-72
2022/01/22 03:54:51;;;;;;;5.88;0.90;;;7.30;95.50;;;;;;9180146;19;20025;-71
2022/01/22 03:58:19;;;;;;;2.03;0.63;;;7.30;95.50;;;;;;9179647;19;20033;-73
2022/01/22 04:04:52;;;;;;;4.47;0.95;;;7.30;95.50;;;;;;9176338;19;20026;-71
2022/01/22 04:08:11;;;;;;;3.58;0.68;;;7.30;95.50;;;;;;9176943;19;20051;-71
2022/01/22 04:11:17;;;;;;;3.60;0.95;;;7.30;95.50;;;;;;9176941;19;20353;-71
2022/01/22 04:14:33;;;;;;;5.32;0.73;;;7.40;95.50;;;;;;9180586;19;20017;-72
2022/01/22 04:24:49;;;;;;;5.53;1.42;;;7.30;95.50;;;;;;9186273;19;20018;-72
2022/01/22 04:27:43;;;;;;;4.97;0.95;;;7.40;95.50;;;;;;9187391;19;20025;-72
2022/01/22 04:30:51;;;;;;;2.97;0.90;;;7.40;95.50;;;;;;9188864;19;20022;-72
2022/01/22 04:33:57;;;;;;;3.25;0.57;;;7.40;95.50;;;;;;9188203;19;20014;-73
2022/01/22 04:37:02;;;;;;;3.92;0.63;;;7.40;95.50;;;;;;9188937;19;20018;-71
2022/01/22 04:40:10;;;;;;;6.20;0.77;;;7.40;95.50;;;;;;9186067;19;20022;-71
2022/01/22 04:43:15;;;;;;;5.63;1.08;;;7.40;95.50;;;;;;9184750;19;20011;-72
2022/01/22 04:46:35;;;;;;;4.78;1.27;;;7.40;95.40;;;;;;9187453;19;20018;-71
2022/01/22 04:56:20;;;;;;;3.00;0.73;;;7.40;95.40;;;;;;9187201;19;20010;-72
2022/01/22 04:59:30;;;;;;;4.38;0.98;;;7.40;95.40;;;;;;9187993;19;20082;-72
2022/01/22 05:02:39;;;;;;;2.65;0.55;;;7.40;95.40;;;;;;9184224;19;20028;-72
2022/01/22 05:06:23;;;;;;;2.42;0.75;;;7.40;95.40;;;;;;9183391;19;20037;-71
2022/01/22 05:09:43;;;;;;;4.30;0.82;;;7.40;95.40;;;;;;9183549;19;20362;-71
2022/01/22 05:12:49;;;;;;;6.65;0.93;;;7.40;95.50;;;;;;9182630;19;20019;-73
2022/01/22 05:15:54;;;;;;;2.72;0.40;;;7.40;95.50;;;;;;9185156;19;20021;-71
2022/01/22 05:19:09;;;;;;;2.40;0.50;;;7.40;95.50;;;;;;9184250;19;20469;-72
2022/01/22 05:22:25;;;;;;;3.35;0.50;;;7.40;95.50;;;;;;9184978;19;20018;-71
2022/01/22 05:25:36;;;;;;;0.80;0.55;;;7.40;95.50;;;;;;9182670;19;20026;-70
2022/01/22 05:29:14;;;;;;;0.95;0.25;;;7.40;95.40;;;;;;9186303;19;20017;-71
2022/01/22 05:32:59;;;;;;;2.22;0.45;;;7.40;95.40;;;;;;9182897;19;20022;-71
2022/01/22 05:39:38;;;;;;;1.23;0.57;;;7.40;95.40;;;;;;9186105;19;20365;-71
2022/01/22 05:42:43;;;;;;;1.02;0.50;;;7.40;95.50;;;;;;9186802;19;20006;-72
2022/01/22 05:45:48;;;;;;;0.95;0.40;;;7.40;95.50;;;;;;9183515;19;20014;-71
2022/01/22 05:48:53;;;;;;;2.38;0.43;;;7.40;95.50;;;;;;9183820;19;20027;-71
2022/01/22 05:52:03;;;;;;;0.93;0.40;;;7.40;95.50;;;;;;9180882;19;20015;-71
2022/01/22 05:55:41;;;;;;;2.38;0.70;;;7.40;95.50;;;;;;9182580;19;20011;-73
2022/01/22 06:02:05;;;;;;;1.20;0.40;;;7.40;95.40;;;;;;9184134;19;20018;-71
2022/01/22 06:05:11;;;;;;;1.90;0.50;;;7.40;95.40;;;;;;9181033;19;20018;-72
2022/01/22 06:08:21;;;;;;;3.28;0.60;;;7.40;95.50;;;;;;9182693;19;20007;-72
2022/01/22 06:11:29;;;;;;;2.00;0.40;;;7.40;95.40;;;;;;9180527;19;20479;-71
2022/01/22 06:14:35;;;;;;;1.10;0.35;;;7.40;95.50;;;;;;9179732;19;20360;-71
2022/01/22 06:17:40;;;;;;;2.08;0.60;;;7.40;95.50;;;;;;9183276;19;20019;-71
2022/01/22 06:20:50;;;;;;;3.17;0.65;;;7.40;95.40;;;;;;9182384;19;20356;-71
2022/01/22 06:23:58;;;;;;;0.60;0.32;;;7.40;95.40;;;;;;9182827;19;20081;-71
2022/01/22 06:27:04;;;;;;;2.00;0.57;;;7.40;95.40;;;;;;9181686;19;20361;-72
2022/01/22 06:30:12;;;;;;;2.00;0.50;;;7.40;95.40;;;;;;9184037;19;20094;-72
2022/01/22 06:33:24;;;;;;;1.42;0.50;;;7.40;95.40;;;;;;9180077;19;20368;-72
2022/01/22 06:36:30;;;;;;;0.77;0.30;;;7.40;95.40;;;;;;9178276;19;20011;-72
2022/01/22 06:41:44;;;;;;;0.95;0.40;;;7.40;95.40;;;;;;9180259;19;20019;-72
2022/01/22 06:43:43;;;;;;;1.05;0.38;;;7.40;95.40;;;;;;9179697;19;20365;-72
2022/01/22 06:46:59;;;;;;;2.42;0.52;;;7.40;95.50;;;;;;9179964;19;20074;-72
2022/01/22 06:50:41;;;;;;;0.77;0.60;;;7.30;95.40;;;;;;9179360;19;20387;-72
2022/01/22 06:53:48;;;;;;;1.02;0.40;;;7.40;95.50;;;;;;9179892;19;20410;-72
2022/01/22 06:57:02;;;;;;;;;;;7.40;95.50;;;;;;9181914;19;20007;-72
2022/01/22 07:00:11;;;;;;;1.27;0.55;;;7.40;95.50;;;;;;9180913;19;20261;-72
2022/01/22 07:03:27;;;;;;;1.13;0.80;;;7.40;95.50;;;;;;9182718;19;20443;-71
2022/01/22 07:06:46;;;;;;;1.00;0.90;;;7.40;95.50;;;;;;9179733;19;20488;-72
2022/01/22 07:09:51;;;;;;;3.20;0.75;;;7.40;95.50;;;;;;9177644;19;20034;-72
2022/01/22 07:12:59;;;;;;;2.40;0.73;;;7.40;95.50;;;;;;9178005;19;20078;-72
2022/01/22 07:16:05;;;;;;;2.58;0.80;;;7.40;95.50;;;;;;9181264;19;20029;-73
2022/01/22 07:19:17;;;;;;;0.98;0.70;;;7.40;95.50;;;;;;9177769;19;20052;-73
2022/01/22 07:22:36;;;;;;;1.50;0.52;;;7.40;95.50;;;;;;9180790;19;20128;-72
2022/01/22 07:26:00;;;;;;;1.75;0.63;;;7.40;95.50;;;;;;9179478;19;20014;-72
2022/01/22 07:29:15;;;;;;;2.00;0.70;;;7.40;95.50;;;;;;9180449;19;20011;-72
2022/01/22 07:32:28;;;;;;;1.63;0.63;;;7.40;95.50;;;;;;9179848;19;20345;-72
2022/01/22 07:35:34;;;;;;;1.10;0.57;;;7.40;95.50;;;;;;9180376;19;20017;-73
2022/01/22 07:38:48;;;;;;;1.45;1.00;;;7.40;95.50;;;;;;9178258;19;20021;-73
2022/01/22 07:41:53;;;;;;;0.80;0.80;;;7.40;95.50;;;;;;9176842;19;20010;-73
2022/01/22 07:45:26;;;;;;;2.03;0.77;;;7.40;95.70;;;;;;9179231;19;20022;-72
2022/01/22 07:48:42;;;;;;;1.35;0.60;;;7.40;95.50;;;;;;9180619;19;20010;-72
2022/01/22 07:51:47;;;;;;;1.35;0.82;;;7.40;95.50;;;;;;9187194;19;20099;-72
2022/01/22 07:54:53;;;;;;;2.60;0.50;;;7.40;95.50;;;;;;9188523;19;20199;-72
2022/01/22 07:57:58;;;;;;;2.03;0.70;;;7.40;95.50;;;;;;9190709;19;20100;-72
2022/01/22 08:01:08;;;;;;;1.23;0.90;;;7.40;95.50;;;;;;9189480;19;20816;-72
2022/01/22 08:04:34;;;;;;;1.55;0.73;;;7.40;95.50;;;;;;9187731;19;20026;-73
2022/01/22 08:08:03;;;;;;;2.25;0.70;;;7.40;95.50;;;;;;9186850;19;20022;-73
2022/01/22 08:11:28;;;;;;;1.73;0.75;;;7.40;95.50;;;;;;9186105;19;20388;-72
2022/01/22 08:14:33;;;;;;;1.80;0.80;;;7.40;95.50;;;;;;9185673;19;20017;-72
2022/01/22 08:17:41;;;;;;;2.20;0.73;;;7.40;95.50;;;;;;9186806;19;20018;-72
2022/01/22 08:20:47;;;;;;;1.40;0.80;;;7.40;95.50;;;;;;9187183;19;20011;-72
2022/01/22 08:24:11;;;;;;;2.17;0.70;;;7.40;95.50;;;;;;9188380;19;20015;-72
2022/01/22 08:27:35;;;;;;;1.75;0.65;;;7.40;95.50;;;;;;9187560;19;20015;-72
2022/01/22 08:30:45;;;;;;;1.27;0.63;;;7.40;95.50;;;;;;9187494;19;20014;-72
2022/01/22 08:37:10;;;;;;;0.50;0.50;;;7.40;95.50;;;;;;9188429;19;20014;-72
2022/01/22 08:40:16;;;;;;;1.33;0.70;;;7.40;95.50;;;;;;9188136;19;20019;-72
2022/01/22 08:43:22;;;;;;;0.60;0.60;;;7.40;95.50;;;;;;9188488;19;20010;-72
2022/01/22 08:46:28;;;;;;;1.48;0.80;;;7.40;95.50;;;;;;9185216;19;20042;-72
2022/01/22 08:49:36;;;;;;;1.52;0.93;;;7.40;95.50;;;;;;9183798;19;20026;-72
2022/01/22 08:52:45;;;;;;;1.40;1.08;;;7.40;95.50;;;;;;9186707;19;20036;-72
2022/01/22 08:55:49;;;;;;;3.67;2.95;;;7.40;95.60;;;;;;9188580;19;20022;-72
2022/01/22 08:58:55;;;;;;;2.53;1.50;;;7.50;95.60;;;;;;9185180;19;20074;-72
2022/01/22 09:02:07;;;;;;;1.80;0.80;;;7.50;95.60;;;;;;9183264;19;20099;-72
2022/01/22 09:05:42;;;;;;;0.77;0.60;;;7.50;95.60;;;;;;9181131;19;20006;-73
2022/01/22 09:09:10;;;;;;;0.75;0.60;;;7.50;95.60;;;;;;9185231;19;20033;-72
2022/01/22 09:12:33;;;;;;;0.82;0.52;;;7.50;95.60;;;;;;9184418;19;20019;-72
2022/01/22 09:15:51;;;;;;;1.60;0.70;;;7.50;95.60;;;;;;9185772;19;20021;-72
2022/01/22 09:19:01;;;;;;;1.98;1.15;;;7.50;95.60;;;;;;9184188;19;20015;-72
2022/01/22 09:22:10;;;;;;;1.65;0.75;;;7.50;95.60;;;;;;9183045;19;20011;-73
2022/01/22 09:25:16;;;;;;;2.92;1.08;;;7.60;95.60;;;;;;9184190;19;20021;-73
2022/01/22 09:28:21;;;;;;;1.38;0.70;;;7.60;95.60;;;;;;9181733;19;20472;-74
2022/01/22 09:31:31;;;;;;;1.33;0.70;;;7.60;95.60;;;;;;9180499;19;20015;-74
2022/01/22 09:34:38;;;;;;;1.48;0.60;;;7.60;95.60;;;;;;9179626;19;20014;-73
2022/01/22 09:38:04;;;;;;;1.35;0.50;;;7.60;95.60;;;;;;9182573;19;20015;-75
2022/01/22 09:41:30;;;;;;;1.00;0.65;;;7.70;95.60;;;;;;9178507;19;20456;-74
2022/01/22 09:45:12;;;;;;;1.23;0.57;;;7.70;95.60;;;;;;9179457;19;20275;-75
2022/01/22 09:48:27;;;;;;;1.83;0.70;;;7.70;95.70;;;;;;9178786;19;20048;-73
2022/01/22 09:51:41;;;;;;;1.52;0.65;;;7.70;95.60;;;;;;9179504;19;20022;-73
2022/01/22 09:55:07;;;;;;;1.08;0.70;;;7.70;95.60;;;;;;9181460;19;20037;-74
2022/01/22 09:58:41;;;;;;;3.28;0.90;;;7.70;95.60;;;;;;9180408;19;20014;-75
2022/01/22 10:02:15;;;;;;;1.13;0.35;;;7.80;95.60;;;;;;9178796;19;20014;-74
2022/01/22 10:05:36;;;;;;;1.13;0.50;;;7.80;95.60;;;;;;9177443;19;20043;-75
2022/01/22 10:09:09;;;;;;;1.85;0.50;;;7.80;95.60;;;;;;9179828;19;20479;-74
2022/01/22 10:12:46;;;;;;;0.47;0.22;;;7.80;95.60;;;;;;9180812;19;20110;-74
2022/01/22 10:16:25;;;;;;;1.65;0.88;;;7.80;95.60;;;;;;9182959;19;20108;-74
2022/01/22 10:19:31;;;;;;;1.17;0.75;;;7.80;95.70;;;;;;9183095;19;20353;-74
2022/01/22 10:22:45;;;;;;;1.48;0.70;;;7.90;95.70;;;;;;9185073;19;20011;-74
2022/01/22 10:25:56;;;;;;;0.45;0.45;;;7.90;95.70;;;;;;9182141;19;20021;-73
2022/01/22 10:29:12;;;;;;;1.30;0.60;;;7.90;95.70;;;;;;9180003;19;20015;-75
2022/01/22 10:32:23;;;;;;;1.48;0.70;;;7.90;95.70;;;;;;9180439;19;20484;-74
2022/01/22 10:35:46;;;;;;;0.98;0.60;;;7.90;95.70;;;;;;9178686;19;20369;-74
2022/01/22 10:39:26;;;;;;;1.33;0.70;;;8.00;95.70;;;;;;9179124;19;20041;-74
2022/01/22 10:42:31;;;;;;;1.40;0.50;;;8.00;95.70;;;;;;9180873;19;20029;-74
2022/01/22 10:45:40;;;;;;;1.58;1.08;;;8.00;95.70;;;;;;9181217;19;20022;-74
2022/01/22 10:48:47;;;;;;;2.13;0.90;;;8.00;95.70;;;;;;9182504;19;20344;-74
2022/01/22 10:51:54;;;;;;;2.35;0.88;;;8.00;95.70;;;;;;9180867;19;20018;-75
2022/01/22 10:55:04;;;;;;;3.90;1.00;;;8.10;95.70;;;;;;9179711;19;20740;-74
2022/01/22 10:58:11;;;;;;;2.05;1.30;;;8.10;95.70;;;;;;9179895;19;20014;-74
2022/01/22 11:01:18;;;;;;;2.22;0.95;;;8.10;95.70;;;;;;9180907;19;20017;-74
2022/01/22 11:04:30;;;;;;;3.22;0.82;;;8.10;95.60;;;;;;9177016;19;20011;-74
2022/01/22 11:07:35;;;;;;;2.40;0.65;;;8.10;95.60;;;;;;9179818;19;20017;-74
2022/01/22 11:10:45;;;;;;;5.93;0.80;;;8.10;95.60;;;;;;9181122;19;20446;-75
2022/01/22 11:13:50;;;;;;;4.05;0.75;;;8.10;95.60;;;;;;9180871;19;20015;-74
2022/01/22 11:16:58;;;;;;;3.53;0.70;;;8.10;95.60;;;;;;9179018;19;20021;-75
2022/01/22 11:20:05;;;;;;;4.97;1.25;;;8.20;95.60;;;;;;9179665;19;20015;-72
2022/01/22 11:23:11;;;;;;;3.15;0.82;;;8.10;95.60;;;;;;9179730;19;20019;-73
2022/01/22 11:26:17;;;;;;;2.28;0.73;;;8.20;95.60;;;;;;9188405;19;20018;-74
2022/01/22 11:29:27;;;;;;;3.90;1.00;;;8.20;95.60;;;;;;9189059;19;20034;-73
2022/01/22 11:32:41;;;;;;;3.35;1.10;;;8.20;95.60;;;;;;9190413;19;20015;-72
2022/01/22 11:36:04;;;;;;;1.67;0.80;;;8.20;95.60;;;;;;9188673;19;20006;-73
2022/01/22 11:39:09;;;;;;;2.60;0.80;;;8.20;95.60;;;;;;9189979;19;20022;-76
2022/01/22 11:42:15;;;;;;;1.73;1.00;;;8.20;95.60;;;;;;9191445;19;20007;-73
2022/01/22 11:45:29;;;;;;;4.07;0.77;;;8.20;95.60;;;;;;9186655;19;20018;-73
2022/01/22 11:48:37;;;;;;;5.30;1.50;;;8.20;95.60;;;;;;9179085;19;20816;-76
2022/01/22 11:51:43;;;;;;;3.50;1.20;;;8.20;95.60;;;;;;9156319;19;20022;-73
2022/01/22 11:54:54;;;;;;;5.75;1.20;;;8.20;95.50;;;;;;9168821;19;20025;-74
2022/01/22 11:58:08;;;;;;;3.30;0.98;;;8.30;95.60;;;;;;9186777;19;20018;-73
2022/01/22 12:01:13;;;;;;;3.58;1.38;;;8.20;95.50;;;;;;9186947;19;20720;-73
2022/01/22 12:04:22;;;;;;;4.00;1.08;;;8.20;95.50;;;;;;9183321;19;20356;-73
2022/01/22 12:07:29;;;;;;;3.50;1.40;;;8.20;95.50;;;;;;9184499;19;20013;-74
2022/01/22 12:10:39;;;;;;;4.50;1.00;;;8.30;95.50;;;;;;9186187;19;20014;-73
2022/01/22 12:17:13;;;;;;;3.50;1.23;;;8.30;95.50;;;;;;9164520;19;20074;-74
2022/01/22 12:24:05;;;;;;;3.35;1.80;;;8.30;95.50;;;;;;9171768;19;20014;-72
2022/01/22 12:27:10;;;;;;;4.50;1.40;;;8.30;95.50;;;;;;9189616;19;20018;-73
2022/01/22 12:30:16;;;;;;;2.92;0.88;;;8.30;95.50;;;;;;9187629;19;20021;-73
2022/01/22 12:33:47;;;;;;;4.07;1.00;;;8.30;95.50;;;;;;9187748;19;20015;-73
2022/01/22 12:36:55;;;;;;;2.90;0.90;;;8.30;95.50;;;;;;9186334;19;20011;-72
2022/01/22 12:40:06;;;;;;;5.15;1.33;;;8.30;95.50;;;;;;9183345;19;20017;-73
2022/01/22 12:43:20;;;;;;;2.90;1.00;;;8.30;95.50;;;;;;9182617;19;20330;-73
2022/01/22 12:46:28;;;;;;;4.43;0.88;;;8.30;95.80;;;;;;9185471;19;20011;-74
2022/01/22 12:49:36;;;;;;;3.20;0.98;;;8.30;95.50;;;;;;9185352;19;20018;-74
2022/01/22 12:52:47;;;;;;;3.58;1.00;;;8.30;95.50;;;;;;9182069;19;20025;-73
2022/01/22 12:59:15;;;;;;;2.97;1.17;;;8.30;95.40;;;;;;9186135;19;20442;-74
2022/01/22 13:02:21;;;;;;;4.53;1.10;;;8.30;95.40;;;;;;9188069;19;20010;-73
2022/01/22 13:05:28;;;;;;;4.15;1.77;;;8.30;95.40;;;;;;9179521;19;20007;-73
2022/01/22 13:08:37;;;;;;;2.03;1.00;;;8.30;95.40;;;;;;9183871;19;20014;-72
2022/01/22 13:11:49;;;;;;;3.33;0.90;;;8.30;95.40;;;;;;9182883;19;20043;-73
2022/01/22 13:14:57;;;;;;;2.80;1.15;;;8.30;95.50;;;;;;9182684;19;20472;-73
2022/01/22 13:18:05;;;;;;;4.43;1.30;;;8.30;95.40;;;;;;9185609;19;20017;-73
2022/01/22 13:21:11;;;;;;;6.30;1.75;;;8.30;95.40;;;;;;9186493;19;20480;-73
2022/01/22 13:24:19;;;;;;;3.78;0.90;;;8.30;95.40;;;;;;9187184;19;20018;-73
2022/01/22 13:27:24;;;;;;;4.53;1.23;;;8.30;95.40;;;;;;9184979;19;20011;-72
2022/01/22 13:30:35;;;;;;;5.22;1.75;;;8.30;95.40;;;;;;9181871;19;20373;-72
2022/01/22 13:33:46;;;;;;;4.80;1.50;;;8.30;95.40;;;;;;9184013;19;20667;-73
2022/01/22 13:37:16;;;;;;;3.83;1.30;;;8.30;95.40;;;;;;9181634;19;20456;-73
2022/01/22 13:40:51;;;;;;;7.03;1.40;;;8.30;95.40;;;;;;9183581;19;20025;-72
2022/01/22 13:50:31;;;;;;;2.35;1.13;;;8.30;95.40;;;;;;9186478;19;20017;-73
2022/01/22 13:53:40;;;;;;;2.30;1.17;;;8.30;95.40;;;;;;9184952;19;20026;-73
2022/01/22 13:56:54;;;;;;;2.92;1.10;;;8.30;95.40;;;;;;9184741;19;20049;-72
2022/01/22 13:59:59;;;;;;;4.20;1.00;;;8.30;95.40;;;;;;9182574;19;20011;-72
2022/01/22 14:03:20;;;;;;;3.35;1.02;;;8.30;95.40;;;;;;9182174;19;20022;-72
2022/01/22 14:06:34;;;;;;;2.33;0.93;;;8.30;95.40;;;;;;9180420;19;20038;-73
2022/01/22 14:09:39;;;;;;;2.70;1.02;;;8.30;95.40;;;;;;9183091;19;20501;-72
2022/01/22 14:12:56;;;;;;;6.43;0.95;;;8.30;95.40;;;;;;9185074;19;20010;-72
2022/01/22 14:16:14;;;;;;;3.58;1.10;;;8.30;95.40;;;;;;9180813;19;20014;-72
2022/01/22 14:19:30;;;;;;;2.35;1.02;;;8.30;95.40;;;;;;9185859;19;20025;-72
2022/01/22 14:22:53;;;;;;;2.53;1.08;;;8.30;95.40;;;;;;9184698;19;20043;-72
2022/01/22 14:26:01;;;;;;;3.60;1.30;;;8.30;95.30;;;;;;9185935;19;20043;-72
2022/01/22 14:29:16;;;;;;;2.70;1.10;;;8.30;95.40;;;;;;9181309;19;20014;-72
2022/01/22 14:32:22;;;;;;;4.00;1.40;;;8.30;95.40;;;;;;9181326;19;20360;-72
2022/01/22 14:35:28;;;;;;;3.17;0.80;;;8.30;95.30;;;;;;9182239;19;20010;-72
2022/01/22 14:38:46;;;;;;;4.07;1.33;;;8.30;95.30;;;;;;9181490;19;20105;-72
2022/01/22 14:45:14;;;;;;;3.97;0.80;;;8.30;95.30;;;;;;9181465;19;20022;-73
2022/01/22 14:48:20;;;;;;;4.22;0.88;;;8.20;95.30;;;;;;9182555;19;20015;-72
2022/01/22 14:51:25;;;;;;;5.05;1.15;;;8.20;95.30;;;;;;9182430;19;20467;-72
2022/01/22 14:54:33;;;;;;;1.92;0.77;;;8.20;95.30;;;;;;9182770;19;20021;-72
2022/01/22 14:57:41;;;;;;;2.40;0.60;;;8.20;95.20;;;;;;9181486;19;20106;-72
2022/01/22 15:00:48;;;;;;;2.70;0.50;;;8.20;95.20;;;;;;9179564;19;20562;-72
2022/01/22 15:03:53;;;;;;;3.15;0.80;;;8.20;95.30;;;;;;9179841;19;20039;-72
2022/01/22 15:07:18;;;;;;;3.20;0.63;;;8.20;95.30;;;;;;9182017;19;20014;-72
2022/01/22 15:10:25;;;;;;;1.77;0.73;;;8.20;95.30;;;;;;9180133;19;20018;-72
2022/01/22 15:13:30;;;;;;;8.23;1.10;;;8.20;95.30;;;;;;9178265;19;20361;-73
2022/01/22 15:16:45;;;;;;;4.38;1.00;;;8.10;95.20;;;;;;9176983;19;20022;-72
2022/01/22 15:19:51;;;;;;;3.58;1.63;;;8.20;95.20;;;;;;9179493;19;20078;-74
2022/01/22 15:23:01;;;;;;;2.55;0.77;;;8.10;95.20;;;;;;9177618;19;20025;-73
2022/01/22 15:26:08;;;;;;;4.45;1.02;;;8.10;95.20;;;;;;9176710;19;20015;-72
2022/01/22 15:29:16;;;;;;;2.05;0.65;;;8.10;95.20;;;;;;9173988;19;20006;-72
2022/01/22 15:32:43;;;;;;;0.90;0.47;;;8.10;95.20;;;;;;9176237;19;20479;-73
2022/01/22 15:35:48;;;;;;;2.72;0.85;;;8.10;95.20;;;;;;9178158;19;21459;-72
2022/01/22 15:38:53;;;;;;;2.17;0.60;;;8.10;95.20;;;;;;9177398;19;20022;-72
2022/01/22 15:41:59;;;;;;;3.58;0.82;;;8.10;95.20;;;;;;9177565;19;20022;-72
2022/01/22 15:45:06;;;;;;;2.35;0.60;;;8.10;95.20;;;;;;9176899;19;20018;-72
2022/01/22 15:48:14;;;;;;;1.70;0.60;;;8.10;95.20;;;;;;9176265;19;20023;-73
2022/01/22 15:51:21;;;;;;;4.07;1.10;;;8.10;95.20;;;;;;9174848;19;20086;-72
2022/01/22 15:54:27;;;;;;;2.13;0.90;;;8.00;95.20;;;;;;9176548;19;20018;-73
2022/01/22 15:57:33;;;;;;;2.25;0.98;;;8.00;95.40;;;;;;9177521;19;20015;-72
2022/01/22 16:00:40;;;;;;;2.05;0.75;;;8.00;95.20;;;;;;9175921;19;20025;-72
2022/01/22 16:03:56;;;;;;;2.00;0.80;;;8.00;95.20;;;;;;9177418;19;20371;-72
2022/01/22 16:07:07;;;;;;;3.38;0.82;;;8.00;95.10;;;;;;9174885;19;20014;-72
2022/01/22 16:10:12;;;;;;;1.58;0.80;;;8.00;95.20;;;;;;9177676;19;20495;-74
2022/01/22 16:13:18;;;;;;;2.72;0.75;;;8.00;95.20;;;;;;9180272;19;20393;-72
2022/01/22 16:16:23;;;;;;;4.78;0.88;;;8.00;95.20;;;;;;9182468;19;20011;-72
2022/01/22 16:19:32;;;;;;;3.15;0.70;;;8.00;95.10;;;;;;9184528;19;20039;-73
2022/01/22 16:22:39;;;;;;;5.38;0.90;;;7.90;95.10;;;;;;9183427;19;20102;-72
2022/01/22 16:25:45;;;;;;;3.78;0.82;;;8.00;95.10;;;;;;9187032;19;20078;-72
2022/01/22 16:28:50;;;;;;;2.80;0.80;;;8.00;95.10;;;;;;9181896;19;20030;-72
2022/01/22 16:31:56;;;;;;;1.80;0.80;;;7.90;95.10;;;;;;9180899;19;20019;-72
2022/01/22 16:35:04;;;;;;;1.77;0.70;;;7.90;95.10;;;;;;9184088;19;20011;-72
2022/01/22 16:38:12;;;;;;;3.38;1.08;;;7.90;95.10;;;;;;9182474;19;20018;-72
2022/01/22 16:41:17;;;;;;;1.63;0.40;;;7.90;95.10;;;;;;9183195;19;20014;-72
2022/01/22 16:44:27;;;;;;;3.45;1.25;;;7.90;95.10;;;;;;9183992;19;20591;-72
2022/01/22 16:57:42;;;;;;;3.25;0.80;;;7.80;95.10;;;;;;9179085;19;20754;-72
2022/01/22 17:00:57;;;;;;;1.23;0.45;;;7.80;95.10;;;;;;9180590;19;20023;-71
2022/01/22 17:04:03;;;;;;;1.55;0.60;;;7.80;95.00;;;;;;9180318;19;20023;-72
2022/01/22 17:07:20;;;;;;;2.25;0.70;;;7.80;95.00;;;;;;9177290;19;20424;-72
2022/01/22 17:10:37;;;;;;;3.30;0.77;;;7.80;95.00;;;;;;9181897;19;20046;-72
2022/01/22 17:16:59;;;;;;;3.15;0.80;;;7.80;95.00;;;;;;9182125;19;20018;-71
2022/01/22 17:20:07;;;;;;;1.40;0.70;;;7.80;95.00;;;;;;9185005;19;20504;-72
2022/01/22 17:23:15;;;;;;;1.95;0.70;;;7.80;95.00;;;;;;9180208;19;20018;-72
2022/01/22 17:26:20;;;;;;;1.10;0.40;;;7.70;95.00;;;;;;9183219;19;20037;-72
2022/01/22 17:29:26;;;;;;;3.00;0.80;;;7.70;95.00;;;;;;9183132;19;20010;-72
2022/01/22 17:32:35;;;;;;;3.42;0.80;;;7.70;95.00;;;;;;9177035;19;20010;-72
2022/01/22 17:36:00;;;;;;;4.35;1.88;;;7.70;95.00;;;;;;9180958;19;20014;-71
2022/01/22 17:39:14;;;;;;;2.65;0.90;;;7.80;95.10;;;;;;9181791;19;20033;-72
2022/01/22 17:42:27;;;;;;;1.77;0.68;;;7.70;95.00;;;;;;9179062;19;20021;-72
2022/01/22 17:45:34;;;;;;;1.13;0.50;;;7.70;95.00;;;;;;9183900;19;20022;-71
2022/01/22 17:48:41;;;;;;;1.27;0.65;;;7.70;95.00;;;;;;9177460;19;20033;-71
2022/01/22 17:51:47;;;;;;;3.35;1.73;;;7.70;95.30;;;;;;9183098;19;20016;-72
2022/01/22 17:54:54;;;;;;;3.35;1.20;;;7.70;95.10;;;;;;9178092;19;20011;-72
2022/01/22 17:57:59;;;;;;;3.50;0.80;;;7.70;95.10;;;;;;9180977;19;20377;-72
2022/01/22 18:01:25;;;;;;;1.83;0.63;;;7.70;95.00;;;;;;9179832;19;20066;-71
2022/01/22 18:04:31;;;;;;;1.90;0.77;;;7.70;95.00;;;;;;9179495;19;20018;-72
2022/01/22 18:07:36;;;;;;;2.70;0.70;;;7.70;95.00;;;;;;9182449;19;20785;-71
2022/01/22 18:10:44;;;;;;;1.58;0.80;;;7.70;95.00;;;;;;9182162;19;20010;-72
2022/01/22 18:13:49;;;;;;;1.90;1.00;;;7.70;95.00;;;;;;9177284;19;20014;-72
2022/01/22 18:16:54;;;;;;;2.92;0.82;;;7.70;95.10;;;;;;9181658;19;20014;-72
2022/01/22 18:20:02;;;;;;;2.03;1.13;;;7.60;95.00;;;;;;9179355;19;20093;-72